Time;durP1;ratioP1;P1;durP2;ratioP2;P2;SDS_P1;SDS_P2;PMS_P1;PMS_P2;Temp;Humidity;BMP_temperature;BMP_pressure;BME280_temperature;BME280_humidity;BME280_pressure;Samples;Min_cycle;Max_cycle;Signal;HPM_P1;HPM_P2
2023/12/18 00:01:39;;;;;;;24.08;12.80;;;6.20;99.90;;;;;;5063176;28;20083;-73
2023/12/18 00:04:07;;;;;;;22.13;11.73;;;6.20;99.90;;;;;;5068274;28;20025;-73
2023/12/18 00:06:32;;;;;;;22.35;11.75;;;6.20;99.90;;;;;;5069626;28;20041;-73
2023/12/18 00:08:58;;;;;;;24.50;12.18;;;6.20;99.90;;;;;;5070243;28;20384;-73
2023/12/18 00:11:24;;;;;;;27.60;12.60;;;6.20;99.90;;;;;;5066181;28;20027;-73
2023/12/18 00:13:49;;;;;;;22.48;12.30;;;6.20;99.90;;;;;;5065643;28;20038;-73
2023/12/18 00:16:15;;;;;;;21.73;12.70;;;6.20;99.90;;;;;;5067921;28;20041;-73
2023/12/18 00:18:40;;;;;;;23.35;12.40;;;6.20;99.90;;;;;;5064274;28;20036;-73
2023/12/18 00:21:06;;;;;;;21.77;11.57;;;6.30;99.90;;;;;;5064180;28;20033;-73
2023/12/18 00:23:31;;;;;;;24.02;13.95;;;6.20;99.90;;;;;;5065559;28;20533;-73
2023/12/18 00:25:57;;;;;;;22.45;12.63;;;6.30;99.90;;;;;;5068332;28;20139;-73
2023/12/18 00:28:22;;;;;;;27.85;13.07;;;6.20;99.90;;;;;;5077453;28;20020;-73
2023/12/18 00:30:48;;;;;;;24.85;13.50;;;6.30;99.90;;;;;;5079222;28;20028;-73
2023/12/18 00:33:14;;;;;;;22.40;12.65;;;6.30;99.90;;;;;;5068929;28;20081;-73
2023/12/18 00:35:40;;;;;;;22.42;12.88;;;6.30;99.90;;;;;;5064508;28;20028;-73
2023/12/18 00:38:05;;;;;;;21.42;13.00;;;6.30;99.90;;;;;;5073908;28;20024;-73
2023/12/18 00:40:31;;;;;;;25.92;13.10;;;6.30;99.90;;;;;;5063829;28;20465;-73
2023/12/18 00:42:57;;;;;;;25.30;13.20;;;6.30;99.90;;;;;;5071521;28;20111;-73
2023/12/18 00:45:23;;;;;;;22.23;13.38;;;6.30;99.90;;;;;;5073275;28;20051;-73
2023/12/18 00:47:48;;;;;;;27.80;13.68;;;6.30;99.90;;;;;;5071840;28;20028;-73
2023/12/18 00:50:14;;;;;;;28.30;13.55;;;6.30;99.90;;;;;;5067511;28;20391;-73
2023/12/18 00:52:40;;;;;;;25.20;12.13;;;6.30;99.90;;;;;;5081040;28;20082;-74
2023/12/18 00:55:06;;;;;;;26.77;12.43;;;6.40;99.90;;;;;;5086062;28;20020;-73
2023/12/18 00:57:32;;;;;;;22.83;12.00;;;6.40;99.90;;;;;;5059517;28;20456;-73
2023/12/18 00:59:58;;;;;;;24.58;13.80;;;6.40;99.90;;;;;;5073075;28;20109;-74
2023/12/18 01:02:24;;;;;;;24.90;13.40;;;6.40;99.90;;;;;;5060685;28;20040;-73
2023/12/18 01:04:50;;;;;;;25.27;12.93;;;6.40;99.90;;;;;;5072300;28;20142;-73
2023/12/18 01:07:16;;;;;;;24.67;13.05;;;6.40;99.90;;;;;;5081799;28;20584;-73
2023/12/18 01:09:41;;;;;;;26.60;14.10;;;6.40;99.90;;;;;;5074315;28;20108;-74
2023/12/18 01:12:07;;;;;;;25.92;13.30;;;6.50;99.90;;;;;;5078124;28;20044;-73
2023/12/18 01:14:32;;;;;;;22.60;13.07;;;6.40;99.90;;;;;;5076550;28;20028;-73
2023/12/18 01:16:58;;;;;;;27.90;13.10;;;6.40;99.90;;;;;;5072297;28;20357;-73
2023/12/18 01:19:24;;;;;;;24.77;13.63;;;6.50;99.90;;;;;;5069990;28;20021;-73
2023/12/18 01:21:50;;;;;;;21.95;12.52;;;6.50;99.90;;;;;;5075344;28;20059;-73
2023/12/18 01:24:16;;;;;;;23.67;13.02;;;6.50;99.90;;;;;;5067774;28;20028;-73
2023/12/18 01:26:42;;;;;;;23.67;12.07;;;6.50;99.90;;;;;;5071896;28;20036;-73
2023/12/18 01:29:07;;;;;;;28.02;12.25;;;6.50;99.90;;;;;;5060825;28;20591;-73
2023/12/18 01:31:33;;;;;;;25.35;13.48;;;6.50;99.90;;;;;;5065353;28;20108;-73
2023/12/18 01:33:59;;;;;;;26.67;13.73;;;6.50;99.90;;;;;;5072988;28;20094;-73
2023/12/18 01:36:25;;;;;;;23.40;13.13;;;6.50;99.90;;;;;;5077732;28;20056;-73
2023/12/18 01:38:50;;;;;;;27.17;13.10;;;6.50;99.90;;;;;;5077920;28;20052;-73
2023/12/18 01:41:17;;;;;;;27.10;12.82;;;6.50;99.90;;;;;;5070682;28;20035;-74
2023/12/18 01:43:42;;;;;;;23.52;14.00;;;6.50;99.90;;;;;;5064467;28;20075;-73
2023/12/18 01:46:08;;;;;;;22.30;13.55;;;6.60;99.90;;;;;;5075442;28;20067;-73
2023/12/18 01:48:34;;;;;;;23.90;12.13;;;6.50;99.90;;;;;;5061955;28;20060;-73
2023/12/18 01:51:02;;;;;;;27.42;13.60;;;6.50;99.90;;;;;;5075163;28;20043;-73
2023/12/18 01:53:36;;;;;;;24.95;13.40;;;6.60;99.90;;;;;;5078920;28;20043;-73
2023/12/18 01:56:02;;;;;;;28.92;14.70;;;6.60;99.90;;;;;;5080092;28;20116;-73
2023/12/18 01:58:31;;;;;;;29.75;14.18;;;6.60;99.90;;;;;;5074419;28;20070;-73
2023/12/18 02:00:58;;;;;;;28.70;14.55;;;6.60;99.90;;;;;;5060279;28;20515;-73
2023/12/18 02:03:24;;;;;;;24.50;13.73;;;6.60;99.90;;;;;;5067350;28;20069;-73
2023/12/18 02:05:50;;;;;;;23.92;14.15;;;6.60;99.90;;;;;;5072493;28;20032;-73
2023/12/18 02:08:15;;;;;;;26.38;14.05;;;6.60;99.90;;;;;;5069588;28;20078;-73
2023/12/18 02:10:42;;;;;;;23.58;13.63;;;6.60;99.90;;;;;;5066947;28;20024;-73
2023/12/18 02:13:08;;;;;;;20.75;13.02;;;6.60;99.90;;;;;;5068429;28;20025;-73
2023/12/18 02:15:33;;;;;;;31.02;14.20;;;6.70;99.90;;;;;;5076908;28;20028;-73
2023/12/18 02:17:59;;;;;;;29.48;15.43;;;6.70;99.90;;;;;;5072958;28;20522;-73
2023/12/18 02:20:24;;;;;;;23.95;13.88;;;6.60;99.90;;;;;;5072918;28;20025;-73
2023/12/18 02:22:51;;;;;;;27.50;14.55;;;6.60;99.90;;;;;;5067324;28;20388;-74
2023/12/18 02:25:18;;;;;;;24.00;13.77;;;6.60;99.90;;;;;;5068269;28;20487;-73
2023/12/18 02:27:45;;;;;;;25.95;14.55;;;6.70;99.90;;;;;;5064528;28;20029;-73
2023/12/18 02:30:15;;;;;;;26.52;15.05;;;6.70;99.90;;;;;;5061130;28;20040;-73
2023/12/18 02:32:41;;;;;;;24.73;14.75;;;6.70;99.90;;;;;;5069714;28;20386;-73
2023/12/18 02:35:07;;;;;;;23.95;13.38;;;6.70;99.90;;;;;;5070473;28;20032;-73
2023/12/18 02:37:33;;;;;;;28.20;15.57;;;6.80;99.90;;;;;;5076849;28;20509;-73
2023/12/18 02:39:58;;;;;;;26.10;13.88;;;6.70;99.90;;;;;;5069897;28;20039;-73
2023/12/18 02:42:24;;;;;;;33.08;15.65;;;6.70;99.90;;;;;;5063116;28;20126;-73
2023/12/18 02:44:50;;;;;;;25.17;14.27;;;6.70;99.90;;;;;;5064060;28;20048;-73
2023/12/18 02:47:15;;;;;;;35.17;15.48;;;6.70;99.90;;;;;;5061792;28;20086;-73
2023/12/18 02:49:42;;;;;;;29.17;13.40;;;6.80;99.90;;;;;;5072868;28;20028;-73
2023/12/18 02:52:08;;;;;;;29.50;15.23;;;6.80;99.90;;;;;;5069412;28;20021;-74
2023/12/18 02:54:33;;;;;;;25.30;14.65;;;6.80;99.90;;;;;;5064405;28;20035;-73
2023/12/18 02:56:59;;;;;;;26.52;13.52;;;6.80;99.90;;;;;;5071257;28;20029;-73
2023/12/18 02:59:25;;;;;;;24.27;14.73;;;6.80;99.90;;;;;;5059068;28;20059;-73
2023/12/18 03:01:50;;;;;;;22.42;14.98;;;6.80;99.90;;;;;;5065304;28;20401;-73
2023/12/18 03:04:19;;;;;;;30.45;15.95;;;6.80;99.90;;;;;;5063385;28;20033;-73
2023/12/18 03:06:48;;;;;;;28.58;14.90;;;6.80;99.90;;;;;;5079943;28;20338;-73
2023/12/18 03:09:14;;;;;;;30.25;14.70;;;6.80;99.90;;;;;;5071203;28;20372;-73
2023/12/18 03:11:41;;;;;;;26.30;14.13;;;6.80;99.90;;;;;;5065638;28;20028;-73
2023/12/18 03:14:07;;;;;;;25.60;14.80;;;6.80;99.90;;;;;;5072406;28;20024;-73
2023/12/18 03:16:33;;;;;;;26.90;15.35;;;6.80;99.90;;;;;;5067223;28;20063;-73
2023/12/18 03:18:59;;;;;;;24.95;14.68;;;6.80;99.90;;;;;;5087603;28;20059;-73
2023/12/18 03:21:24;;;;;;;28.42;15.93;;;6.80;99.90;;;;;;5069139;28;20028;-73
2023/12/18 03:23:50;;;;;;;25.55;14.80;;;6.80;99.90;;;;;;5060886;28;20025;-73
2023/12/18 03:26:16;;;;;;;26.63;15.13;;;6.90;99.90;;;;;;5070030;28;20500;-73
2023/12/18 03:28:42;;;;;;;29.67;15.73;;;6.80;99.90;;;;;;5062269;28;20051;-73
2023/12/18 03:31:09;;;;;;;25.52;14.07;;;6.90;99.90;;;;;;5068766;28;20536;-71
2023/12/18 03:33:35;;;;;;;28.52;15.30;;;6.80;99.90;;;;;;5064424;28;20397;-72
2023/12/18 03:36:01;;;;;;;27.95;15.57;;;6.80;99.90;;;;;;5053265;28;20033;-72
2023/12/18 03:38:27;;;;;;;29.90;15.20;;;6.90;99.90;;;;;;5074065;28;20073;-72
2023/12/18 03:40:52;;;;;;;31.98;15.90;;;6.90;99.90;;;;;;5069471;28;20024;-72
2023/12/18 03:43:18;;;;;;;28.10;15.65;;;6.90;99.90;;;;;;5066305;28;20107;-72
2023/12/18 03:45:43;;;;;;;30.65;15.95;;;6.90;99.90;;;;;;5073230;28;20033;-72
2023/12/18 03:48:10;;;;;;;32.03;15.23;;;6.90;99.90;;;;;;5065553;28;20087;-72
2023/12/18 03:50:36;;;;;;;28.58;14.93;;;6.90;99.90;;;;;;5080048;28;20068;-72
2023/12/18 03:53:01;;;;;;;28.00;16.02;;;6.90;99.90;;;;;;5077257;28;20032;-72
2023/12/18 03:55:27;;;;;;;30.27;14.95;;;6.90;99.90;;;;;;5091642;28;20099;-71
2023/12/18 03:57:53;;;;;;;27.52;15.63;;;6.90;99.90;;;;;;5061922;28;20029;-72
2023/12/18 04:00:19;;;;;;;31.33;15.50;;;6.90;99.90;;;;;;5060166;28;20542;-71
2023/12/18 04:02:45;;;;;;;28.13;15.10;;;6.80;99.90;;;;;;5055827;28;20041;-72
2023/12/18 04:05:10;;;;;;;27.00;15.50;;;6.80;99.90;;;;;;5068048;28;20025;-72
2023/12/18 04:07:36;;;;;;;27.42;16.75;;;6.90;99.90;;;;;;5064350;28;20077;-72
2023/12/18 04:10:02;;;;;;;28.42;14.82;;;6.80;99.90;;;;;;5080019;28;20103;-72
2023/12/18 04:12:27;;;;;;;25.58;15.63;;;6.80;99.90;;;;;;5067597;28;20024;-72
2023/12/18 04:14:53;;;;;;;31.55;15.27;;;6.80;99.90;;;;;;5071227;28;20035;-72
2023/12/18 04:17:18;;;;;;;26.23;15.70;;;6.80;99.90;;;;;;5072451;28;20033;-72
2023/12/18 04:19:44;;;;;;;28.27;16.13;;;6.80;99.90;;;;;;5065133;28;20025;-72
2023/12/18 04:22:10;;;;;;;29.70;16.05;;;6.80;99.90;;;;;;5070303;28;20016;-72
2023/12/18 04:24:35;;;;;;;26.83;15.60;;;6.80;99.90;;;;;;5077160;28;20033;-72
2023/12/18 04:27:01;;;;;;;27.85;15.73;;;6.80;99.90;;;;;;5062731;28;20032;-72
2023/12/18 04:29:26;;;;;;;30.70;15.68;;;6.80;99.90;;;;;;5075159;28;20036;-72
2023/12/18 04:31:52;;;;;;;24.70;15.18;;;6.80;99.90;;;;;;5065417;28;20033;-72
2023/12/18 04:34:18;;;;;;;29.63;15.73;;;6.80;99.90;;;;;;5067796;28;20029;-72
2023/12/18 04:36:44;;;;;;;34.38;15.48;;;6.80;99.90;;;;;;5052441;28;20504;-71
2023/12/18 04:39:14;;;;;;;28.70;15.75;;;6.80;99.90;;;;;;5079982;28;20024;-72
2023/12/18 04:41:39;;;;;;;34.53;16.40;;;6.80;99.90;;;;;;5078477;28;20166;-72
2023/12/18 04:44:05;;;;;;;31.88;17.13;;;6.80;99.90;;;;;;5072728;28;20549;-72
2023/12/18 04:46:35;;;;;;;29.88;17.58;;;6.80;99.90;;;;;;5065774;28;20033;-71
2023/12/18 04:49:02;;;;;;;33.65;17.52;;;6.80;99.90;;;;;;5072284;28;20020;-72
2023/12/18 04:51:28;;;;;;;32.35;16.38;;;6.80;99.90;;;;;;5087491;28;20025;-72
2023/12/18 04:53:55;;;;;;;33.83;16.10;;;6.80;99.90;;;;;;5085512;28;20021;-72
2023/12/18 04:56:20;;;;;;;27.58;17.20;;;6.80;99.90;;;;;;5059758;28;20103;-72
2023/12/18 04:58:46;;;;;;;32.03;17.92;;;6.80;99.90;;;;;;5067602;28;20086;-72
2023/12/18 05:01:11;;;;;;;33.97;16.92;;;6.80;99.90;;;;;;5076532;28;20028;-72
2023/12/18 05:03:37;;;;;;;30.65;16.90;;;6.80;99.90;;;;;;5071118;28;20035;-72
2023/12/18 05:06:03;;;;;;;25.40;16.85;;;6.80;99.90;;;;;;5075144;28;20059;-71
2023/12/18 05:08:28;;;;;;;31.83;18.27;;;6.80;99.90;;;;;;5076121;28;20064;-72
2023/12/18 05:10:55;;;;;;;35.15;18.35;;;6.80;99.90;;;;;;5069531;28;20032;-72
2023/12/18 05:13:20;;;;;;;38.95;19.63;;;6.70;99.90;;;;;;5075913;28;20024;-71
2023/12/18 05:15:46;;;;;;;35.47;17.45;;;6.80;99.90;;;;;;5070768;28;20035;-72
2023/12/18 05:18:12;;;;;;;34.25;18.63;;;6.80;99.90;;;;;;5071732;28;20035;-72
2023/12/18 05:20:37;;;;;;;29.52;17.38;;;6.80;99.90;;;;;;5079118;28;20060;-71
2023/12/18 05:23:03;;;;;;;34.50;19.20;;;6.80;99.90;;;;;;5080305;28;20432;-72
2023/12/18 05:25:29;;;;;;;31.77;18.63;;;6.80;99.90;;;;;;5071002;28;20031;-72
2023/12/18 05:27:55;;;;;;;29.38;17.90;;;6.70;99.90;;;;;;5073643;28;20071;-72
2023/12/18 05:30:21;;;;;;;31.27;18.15;;;6.80;99.90;;;;;;5080414;28;20047;-72
2023/12/18 05:32:46;;;;;;;28.98;18.02;;;6.70;99.90;;;;;;5064068;28;20033;-72
2023/12/18 05:35:12;;;;;;;32.67;19.05;;;6.80;99.90;;;;;;5072757;28;20369;-71
2023/12/18 05:37:37;;;;;;;35.47;18.98;;;6.80;99.90;;;;;;5074826;28;20028;-72
2023/12/18 05:40:04;;;;;;;30.15;17.67;;;6.80;99.90;;;;;;5077325;28;20491;-72
2023/12/18 05:42:29;;;;;;;34.08;18.63;;;6.80;99.90;;;;;;5060850;28;20043;-72
2023/12/18 05:44:55;;;;;;;31.60;17.88;;;6.80;99.90;;;;;;5069800;28;20052;-72
2023/12/18 05:47:20;;;;;;;32.45;19.00;;;6.80;99.90;;;;;;5071473;28;20499;-72
2023/12/18 05:49:46;;;;;;;32.33;18.35;;;6.80;99.90;;;;;;5074675;28;20035;-72
2023/12/18 05:52:11;;;;;;;31.00;18.00;;;6.80;99.90;;;;;;5062778;28;20041;-72
2023/12/18 05:54:37;;;;;;;29.58;18.95;;;6.80;99.90;;;;;;5065015;28;20083;-72
2023/12/18 05:57:03;;;;;;;37.00;18.80;;;6.80;99.90;;;;;;5076021;28;20439;-72
2023/12/18 05:59:29;;;;;;;31.40;18.63;;;6.80;99.90;;;;;;5063338;28;20166;-72
2023/12/18 06:01:55;;;;;;;34.30;18.92;;;6.80;99.90;;;;;;5061124;28;20035;-72
2023/12/18 06:04:21;;;;;;;32.25;18.58;;;6.80;99.90;;;;;;5061910;28;20024;-72
2023/12/18 06:06:47;;;;;;;31.58;18.58;;;6.80;99.90;;;;;;5071512;28;20036;-72
2023/12/18 06:09:13;;;;;;;36.17;18.90;;;6.80;99.90;;;;;;5069394;28;20055;-72
2023/12/18 06:11:38;;;;;;;35.65;19.48;;;6.90;99.90;;;;;;5064127;28;20033;-72
2023/12/18 06:14:04;;;;;;;30.05;18.77;;;6.80;99.90;;;;;;5058239;28;20040;-72
2023/12/18 06:16:30;;;;;;;35.58;19.02;;;6.90;99.90;;;;;;5060749;28;20496;-72
2023/12/18 06:18:55;;;;;;;33.47;19.33;;;6.90;99.90;;;;;;5071201;28;20032;-72
2023/12/18 06:21:21;;;;;;;37.10;18.83;;;6.90;99.90;;;;;;5063630;28;20469;-72
2023/12/18 06:23:46;;;;;;;35.78;18.98;;;6.80;99.90;;;;;;5073903;28;20484;-72
2023/12/18 06:26:12;;;;;;;28.52;18.77;;;6.90;99.90;;;;;;5076530;28;20116;-72
2023/12/18 06:28:38;;;;;;;35.95;18.65;;;6.90;99.90;;;;;;5054268;28;20036;-72
2023/12/18 06:31:03;;;;;;;31.67;18.38;;;6.90;99.90;;;;;;5061303;28;20031;-72
2023/12/18 06:33:29;;;;;;;37.30;18.85;;;6.90;99.90;;;;;;5062310;28;20031;-72
2023/12/18 06:35:55;;;;;;;35.25;18.70;;;7.00;99.90;;;;;;5084460;28;20060;-72
2023/12/18 06:38:21;;;;;;;33.17;18.52;;;7.00;99.90;;;;;;5074820;28;20059;-72
2023/12/18 06:40:46;;;;;;;40.28;19.90;;;7.00;99.90;;;;;;5086984;28;20035;-72
2023/12/18 06:43:12;;;;;;;35.78;17.90;;;7.00;99.90;;;;;;5064191;28;20139;-72
2023/12/18 06:45:37;;;;;;;33.25;18.52;;;7.00;99.90;;;;;;5091324;28;20121;-72
2023/12/18 06:48:03;;;;;;;31.23;17.42;;;7.00;99.90;;;;;;5069502;28;20032;-72
2023/12/18 06:50:29;;;;;;;35.83;18.50;;;7.00;99.90;;;;;;5058661;28;20033;-72
2023/12/18 06:52:55;;;;;;;44.75;20.55;;;7.00;99.90;;;;;;5067826;28;20031;-72
2023/12/18 06:55:21;;;;;;;32.50;18.13;;;7.00;99.90;;;;;;5060292;28;20032;-72
2023/12/18 06:57:46;;;;;;;36.20;19.40;;;7.00;99.90;;;;;;5061665;28;20066;-72
2023/12/18 07:00:13;;;;;;;35.55;18.55;;;7.10;99.90;;;;;;5054218;28;20112;-72
2023/12/18 07:02:38;;;;;;;31.90;18.92;;;7.10;99.90;;;;;;5061987;28;20488;-72
2023/12/18 07:05:04;;;;;;;34.63;19.20;;;7.10;99.90;;;;;;5059406;28;20034;-72
2023/12/18 07:07:30;;;;;;;38.42;18.92;;;7.10;99.90;;;;;;5058268;28;20515;-72
2023/12/18 07:09:56;;;;;;;38.13;19.70;;;7.10;99.90;;;;;;5055132;28;20029;-72
2023/12/18 07:12:21;;;;;;;38.67;19.55;;;7.00;99.90;;;;;;5056850;28;20025;-72
2023/12/18 07:14:47;;;;;;;40.17;19.25;;;7.10;99.90;;;;;;5060004;28;20078;-72
2023/12/18 07:17:12;;;;;;;34.70;19.55;;;7.00;99.90;;;;;;5050989;28;20401;-72
2023/12/18 07:19:39;;;;;;;38.55;19.92;;;7.00;99.90;;;;;;5055830;28;20029;-72
2023/12/18 07:22:05;;;;;;;36.78;19.08;;;7.00;99.90;;;;;;5054075;28;20029;-72
2023/12/18 07:24:31;;;;;;;33.05;18.00;;;7.00;99.90;;;;;;5063656;28;20025;-72
2023/12/18 07:26:56;;;;;;;31.05;17.33;;;7.00;99.90;;;;;;5053479;28;20386;-72
2023/12/18 07:29:22;;;;;;;35.67;18.52;;;7.00;99.90;;;;;;5053569;28;20031;-72
2023/12/18 07:31:48;;;;;;;35.45;18.38;;;7.00;99.90;;;;;;5055250;28;20029;-72
2023/12/18 07:34:13;;;;;;;32.15;18.23;;;7.00;99.90;;;;;;5052081;28;20029;-72
2023/12/18 07:36:40;;;;;;;38.47;17.35;;;7.00;99.90;;;;;;5051700;28;20108;-72
2023/12/18 07:39:06;;;;;;;34.88;18.20;;;7.00;99.90;;;;;;5058634;28;20392;-72
2023/12/18 07:41:32;;;;;;;40.55;19.05;;;7.00;99.90;;;;;;5063252;28;20115;-72
2023/12/18 07:43:57;;;;;;;37.53;20.33;;;7.00;99.90;;;;;;5055968;28;20504;-71
2023/12/18 07:46:23;;;;;;;40.90;19.40;;;7.00;99.90;;;;;;5085030;28;20051;-72
2023/12/18 07:48:49;;;;;;;32.33;18.73;;;7.00;99.90;;;;;;5066826;28;20397;-72
2023/12/18 07:51:16;;;;;;;40.55;19.13;;;7.00;99.90;;;;;;5065198;28;20127;-72
2023/12/18 07:53:42;;;;;;;31.90;19.20;;;7.00;99.90;;;;;;5059258;28;20043;-72
2023/12/18 07:56:07;;;;;;;36.60;19.30;;;7.00;99.90;;;;;;5054639;28;20025;-72
2023/12/18 07:58:33;;;;;;;38.58;20.17;;;7.10;99.90;;;;;;5057134;28;20079;-72
2023/12/18 08:00:58;;;;;;;37.80;18.73;;;7.10;99.90;;;;;;5057733;28;20037;-72
2023/12/18 08:03:24;;;;;;;33.20;18.80;;;7.10;99.90;;;;;;5053626;28;20033;-72
2023/12/18 08:05:50;;;;;;;34.72;19.65;;;7.10;99.90;;;;;;5060414;28;20470;-72
2023/12/18 08:08:15;;;;;;;42.08;18.88;;;7.20;99.90;;;;;;5069618;28;20036;-72
2023/12/18 08:10:42;;;;;;;30.85;17.95;;;7.10;99.90;;;;;;5063226;28;20492;-72
2023/12/18 08:13:08;;;;;;;37.28;19.02;;;7.20;99.90;;;;;;5061071;28;20037;-72
2023/12/18 08:15:34;;;;;;;31.92;19.33;;;7.10;99.90;;;;;;5053452;28;20524;-72
2023/12/18 08:17:59;;;;;;;34.45;18.45;;;7.20;99.90;;;;;;5067750;28;20025;-72
2023/12/18 08:20:25;;;;;;;38.10;20.13;;;7.20;99.90;;;;;;5074638;28;20075;-72
2023/12/18 08:22:50;;;;;;;37.97;19.60;;;7.20;99.90;;;;;;5063534;28;20078;-72
2023/12/18 08:25:16;;;;;;;36.42;18.67;;;7.20;99.90;;;;;;5059715;28;20048;-72
2023/12/18 08:27:42;;;;;;;39.55;19.20;;;7.30;99.90;;;;;;5066207;28;20040;-72
2023/12/18 08:30:09;;;;;;;35.63;18.77;;;7.30;99.90;;;;;;5058353;28;20032;-72
2023/12/18 08:32:35;;;;;;;34.92;18.90;;;7.30;99.90;;;;;;5055413;28;20056;-72
2023/12/18 08:35:02;;;;;;;39.17;20.73;;;7.40;99.90;;;;;;5059394;28;20479;-72
2023/12/18 08:37:27;;;;;;;34.78;19.98;;;7.40;99.90;;;;;;5055916;28;20032;-72
2023/12/18 08:39:53;;;;;;;37.20;18.33;;;7.40;99.90;;;;;;5054913;28;20424;-72
2023/12/18 08:42:19;;;;;;;29.67;17.63;;;7.40;99.90;;;;;;5054526;28;20662;-73
2023/12/18 08:44:44;;;;;;;30.05;17.98;;;7.40;99.90;;;;;;5056156;28;20502;-72
2023/12/18 08:47:11;;;;;;;37.28;18.40;;;7.50;99.90;;;;;;5057057;28;20041;-72
2023/12/18 08:49:37;;;;;;;39.83;18.85;;;7.50;99.90;;;;;;5056633;28;20024;-72
2023/12/18 08:52:02;;;;;;;31.45;17.73;;;7.50;99.90;;;;;;5055227;28;20606;-72
2023/12/18 08:54:28;;;;;;;32.97;17.95;;;7.60;99.90;;;;;;5059116;28;21218;-72
2023/12/18 08:56:53;;;;;;;38.80;19.05;;;7.60;99.90;;;;;;5057817;28;20037;-72
2023/12/18 08:59:19;;;;;;;35.83;19.65;;;7.60;99.90;;;;;;5056891;28;20099;-72
2023/12/18 09:01:45;;;;;;;36.55;18.83;;;7.60;99.90;;;;;;5065062;28;20059;-72
2023/12/18 09:04:10;;;;;;;36.10;19.05;;;7.60;99.90;;;;;;5054387;28;20024;-72
2023/12/18 09:06:36;;;;;;;37.03;18.75;;;7.60;99.90;;;;;;5061288;28;20036;-72
2023/12/18 09:09:03;;;;;;;35.45;18.35;;;7.60;99.90;;;;;;5071000;28;20023;-72
2023/12/18 09:11:33;;;;;;;41.05;18.40;;;7.60;99.90;;;;;;5057035;28;20429;-72
2023/12/18 09:14:00;;;;;;;38.10;19.83;;;7.60;99.90;;;;;;5058137;28;20052;-72
2023/12/18 09:16:26;;;;;;;35.38;18.70;;;7.60;99.90;;;;;;5056414;28;20076;-72
2023/12/18 09:18:51;;;;;;;36.90;18.65;;;7.70;99.90;;;;;;5052631;28;20051;-73
2023/12/18 09:21:17;;;;;;;30.65;17.75;;;7.70;99.90;;;;;;5055996;28;20057;-72
2023/12/18 09:23:44;;;;;;;40.80;18.83;;;7.70;99.90;;;;;;5063802;28;20051;-72
2023/12/18 09:26:12;;;;;;;34.40;18.27;;;7.60;99.90;;;;;;5059434;28;20200;-73
2023/12/18 09:28:38;;;;;;;38.13;19.88;;;7.70;99.90;;;;;;5058758;28;20070;-71
2023/12/18 09:31:05;;;;;;;33.70;18.13;;;7.70;99.90;;;;;;5059159;28;20029;-73
2023/12/18 09:33:33;;;;;;;41.40;19.88;;;7.80;99.90;;;;;;5057003;28;20025;-72
2023/12/18 09:35:59;;;;;;;36.08;18.85;;;7.80;99.90;;;;;;5060180;28;20248;-73
2023/12/18 09:38:25;;;;;;;40.60;18.90;;;7.90;99.90;;;;;;5057685;28;20043;-72
2023/12/18 09:40:51;;;;;;;38.10;19.85;;;7.90;99.90;;;;;;5057297;28;20473;-72
2023/12/18 09:43:18;;;;;;;36.72;18.15;;;8.00;99.90;;;;;;5057512;28;20033;-72
2023/12/18 09:45:48;;;;;;;32.42;18.02;;;8.00;99.90;;;;;;5059182;28;20455;-72
2023/12/18 09:48:15;;;;;;;32.50;18.08;;;8.10;99.90;;;;;;5062420;28;20431;-72
2023/12/18 09:50:44;;;;;;;39.50;19.45;;;8.10;99.90;;;;;;5061231;28;20025;-73
2023/12/18 09:53:12;;;;;;;35.97;17.60;;;8.20;99.90;;;;;;5057003;28;20484;-73
2023/12/18 09:55:39;;;;;;;30.58;17.52;;;8.20;99.90;;;;;;5067420;28;20028;-73
2023/12/18 09:58:06;;;;;;;32.95;17.80;;;8.30;99.90;;;;;;5055970;28;20025;-73
2023/12/18 10:00:32;;;;;;;31.35;18.15;;;8.30;99.90;;;;;;5057499;28;20158;-72
2023/12/18 10:02:59;;;;;;;32.70;18.10;;;8.30;99.90;;;;;;5061184;28;20066;-72
2023/12/18 10:05:26;;;;;;;35.10;18.95;;;8.30;99.90;;;;;;5055641;28;20040;-73
2023/12/18 10:07:53;;;;;;;34.38;18.23;;;8.40;99.90;;;;;;5056247;28;20029;-73
2023/12/18 10:10:19;;;;;;;31.30;18.50;;;8.40;99.90;;;;;;5057394;28;20029;-73
2023/12/18 10:12:48;;;;;;;32.47;17.08;;;8.40;99.90;;;;;;5057591;28;20828;-73
2023/12/18 10:15:14;;;;;;;30.60;16.98;;;8.50;99.90;;;;;;5059051;28;20029;-73
2023/12/18 10:17:44;;;;;;;31.77;17.35;;;8.50;99.90;;;;;;5056996;28;20074;-73
2023/12/18 10:20:12;;;;;;;34.75;18.35;;;8.50;99.90;;;;;;5055703;28;20373;-73
2023/12/18 10:22:40;;;;;;;34.67;16.55;;;8.60;99.90;;;;;;5057012;28;20523;-73
2023/12/18 10:25:08;;;;;;;31.05;17.58;;;8.60;99.90;;;;;;5058677;28;20456;-73
2023/12/18 10:27:34;;;;;;;28.77;18.00;;;8.60;99.90;;;;;;5057943;28;20500;-73
2023/12/18 10:30:00;;;;;;;32.40;16.80;;;8.70;99.90;;;;;;5054748;28;20033;-73
2023/12/18 10:32:29;;;;;;;36.47;17.50;;;8.60;99.90;;;;;;5056028;28;20497;-73
2023/12/18 10:34:58;;;;;;;34.40;17.17;;;8.70;99.90;;;;;;5055345;28;20051;-73
2023/12/18 10:37:27;;;;;;;28.33;17.15;;;8.70;99.90;;;;;;5056528;28;20025;-73
2023/12/18 10:39:56;;;;;;;28.38;17.42;;;8.70;99.90;;;;;;5066871;28;20024;-73
2023/12/18 10:42:45;;;;;;;28.42;16.45;;;8.70;99.90;;;;;;5066818;28;20028;-73
2023/12/18 10:45:11;;;;;;;31.52;17.88;;;8.70;99.90;;;;;;5069175;28;20056;-73
2023/12/18 10:47:37;;;;;;;32.80;16.77;;;8.70;99.90;;;;;;5066174;28;20045;-73
2023/12/18 10:50:04;;;;;;;31.15;16.98;;;8.80;99.90;;;;;;5081710;28;20444;-73
2023/12/18 10:52:32;;;;;;;32.75;18.00;;;8.80;99.90;;;;;;5075121;28;20025;-73
2023/12/18 10:55:05;;;;;;;38.60;17.77;;;8.80;99.90;;;;;;5071445;28;20075;-73
2023/12/18 10:57:32;;;;;;;30.77;17.27;;;8.90;99.90;;;;;;5070841;28;20054;-73
2023/12/18 10:59:59;;;;;;;30.13;17.52;;;8.90;99.90;;;;;;5092147;28;20020;-73
2023/12/18 11:02:26;;;;;;;32.80;16.73;;;9.00;99.90;;;;;;5069529;28;20054;-73
2023/12/18 11:04:56;;;;;;;35.17;19.33;;;9.10;99.90;;;;;;5060336;28;20427;-73
2023/12/18 11:07:21;;;;;;;32.60;17.13;;;9.20;99.90;;;;;;5072480;28;20492;-73
2023/12/18 11:09:49;;;;;;;32.22;18.33;;;9.20;99.90;;;;;;5070716;28;20045;-74
2023/12/18 11:12:17;;;;;;;41.58;19.05;;;9.20;99.90;;;;;;5070193;28;20108;-73
2023/12/18 11:15:07;;;;;;;34.03;17.20;;;9.20;99.90;;;;;;5069556;28;20021;-73
2023/12/18 11:17:40;;;;;;;33.78;16.48;;;9.20;99.90;;;;;;5062752;28;20375;-73
2023/12/18 11:20:26;;;;;;;29.90;16.05;;;9.20;99.90;;;;;;5067876;28;20067;-73
2023/12/18 11:22:57;;;;;;;27.83;16.83;;;9.30;99.90;;;;;;5066788;28;20020;-73
2023/12/18 11:25:47;;;;;;;31.25;17.27;;;9.30;99.90;;;;;;5076928;28;20032;-72
2023/12/18 11:28:12;;;;;;;28.45;16.17;;;9.20;99.90;;;;;;5067311;28;20085;-73
2023/12/18 11:30:43;;;;;;;31.58;16.85;;;9.20;99.90;;;;;;5061330;28;20028;-73
2023/12/18 11:33:10;;;;;;;32.60;17.52;;;9.20;99.90;;;;;;5072782;28;20056;-73
2023/12/18 11:35:37;;;;;;;28.45;16.90;;;9.20;99.90;;;;;;5072892;28;20501;-73
2023/12/18 11:38:06;;;;;;;37.10;17.67;;;9.20;99.90;;;;;;5073649;28;20405;-73
2023/12/18 11:40:32;;;;;;;35.70;16.20;;;9.10;99.90;;;;;;5065396;28;20021;-73
2023/12/18 11:43:02;;;;;;;31.70;17.13;;;9.10;99.90;;;;;;5082116;28;20035;-73
2023/12/18 11:45:28;;;;;;;29.38;16.40;;;9.10;99.90;;;;;;5077367;28;20107;-73
2023/12/18 11:47:55;;;;;;;31.42;17.33;;;9.00;99.90;;;;;;5058555;28;20055;-73
2023/12/18 11:50:25;;;;;;;31.20;17.15;;;9.10;99.90;;;;;;5072381;28;20024;-73
2023/12/18 11:52:54;;;;;;;28.70;15.32;;;9.20;99.90;;;;;;5072694;28;20032;-73
2023/12/18 11:55:41;;;;;;;34.28;17.30;;;9.10;99.90;;;;;;5067741;28;20112;-73
2023/12/18 11:58:07;;;;;;;35.00;17.63;;;9.10;99.90;;;;;;5059540;28;20102;-73
2023/12/18 12:00:34;;;;;;;30.90;16.52;;;9.10;99.90;;;;;;5069872;28;20025;-73
2023/12/18 12:03:01;;;;;;;35.22;16.35;;;9.10;99.90;;;;;;5058267;28;20036;-73
2023/12/18 12:05:27;;;;;;;31.48;16.98;;;9.10;99.90;;;;;;5051569;28;20028;-73
2023/12/18 12:07:54;;;;;;;33.00;16.95;;;9.10;99.90;;;;;;5062652;28;20039;-73
2023/12/18 12:10:20;;;;;;;30.10;16.60;;;9.00;99.90;;;;;;5053034;28;20021;-73
2023/12/18 12:12:53;;;;;;;31.00;16.63;;;9.00;99.90;;;;;;5056509;28;20044;-73
2023/12/18 12:15:22;;;;;;;30.58;17.20;;;8.90;99.90;;;;;;5057382;28;20507;-73
2023/12/18 12:17:48;;;;;;;28.27;15.70;;;8.90;99.90;;;;;;5054600;28;20103;-74
2023/12/18 12:20:15;;;;;;;32.35;17.25;;;8.80;99.90;;;;;;5052448;28;20075;-74
2023/12/18 12:22:40;;;;;;;34.90;16.00;;;8.80;99.90;;;;;;5055243;28;20099;-73
2023/12/18 12:25:06;;;;;;;30.30;15.95;;;8.80;99.90;;;;;;5073242;28;20107;-74
2023/12/18 12:27:32;;;;;;;27.83;15.77;;;8.90;99.90;;;;;;5072922;28;20504;-74
2023/12/18 12:29:58;;;;;;;27.85;15.85;;;8.90;99.90;;;;;;5068626;28;20039;-73
2023/12/18 12:32:25;;;;;;;28.75;16.65;;;8.80;99.90;;;;;;5063713;28;20021;-73